Time;durP1;ratioP1;P1;durP2;ratioP2;P2;SDS_P1;SDS_P2;PMS_P1;PMS_P2;Temp;Humidity;BMP_temperature;BMP_pressure;BME280_temperature;BME280_humidity;BME280_pressure;Samples;Min_cycle;Max_cycle;Signal;HPM_P1;HPM_P2
2023/10/22 00:01:41;;;;;;;2.80;0.50;;;15.20;99.90;;;15.41;100.00;99494.53;5224747;28;20411;-48
2023/10/22 00:04:13;;;;;;;3.75;0.68;;;15.20;99.90;;;15.45;100.00;99496.25;5220877;28;20147;-48
2023/10/22 00:06:47;;;;;;;2.08;0.60;;;15.20;99.90;;;15.41;100.00;99494.53;5221557;28;20057;-48
2023/10/22 00:09:19;;;;;;;0.73;0.43;;;15.20;99.90;;;15.39;100.00;99506.78;5228645;28;20047;-48
2023/10/22 00:11:52;;;;;;;2.05;0.75;;;15.20;99.90;;;15.39;100.00;99498.91;5219689;28;20053;-48
2023/10/22 00:14:24;;;;;;;3.50;0.55;;;15.20;99.90;;;15.37;100.00;99503.28;5213615;28;20061;-49
2023/10/22 00:16:58;;;;;;;3.10;0.80;;;15.20;99.90;;;15.38;100.00;99505.03;5222659;28;20060;-49
2023/10/22 00:19:50;;;;;;;5.07;0.70;;;15.20;99.90;;;15.39;100.00;99512.03;5221138;28;20125;-48
2023/10/22 00:22:23;;;;;;;1.10;0.70;;;15.20;99.90;;;15.41;100.00;99510.28;5222961;28;20052;-48
2023/10/22 00:24:55;;;;;;;2.30;0.70;;;15.20;99.90;;;15.42;100.00;99514.63;5221340;28;20061;-48
2023/10/22 00:27:27;;;;;;;4.00;0.88;;;15.20;99.90;;;15.38;100.00;99520.78;5227423;28;20053;-48
2023/10/22 00:30:00;;;;;;;2.50;0.70;;;15.20;99.90;;;15.38;100.00;99510.28;5221119;28;20522;-48
2023/10/22 00:32:34;;;;;;;3.03;0.70;;;15.20;99.90;;;15.41;100.00;99509.41;5227562;28;20064;-48
2023/10/22 00:35:07;;;;;;;2.72;0.60;;;15.20;99.90;;;15.30;100.00;99521.69;5219149;28;20424;-49
2023/10/22 00:37:39;;;;;;;0.88;0.45;;;15.10;99.90;;;15.26;100.00;99520.88;5219681;28;20056;-48
2023/10/22 00:40:14;;;;;;;2.38;0.60;;;15.10;99.90;;;15.22;100.00;99526.13;5220616;28;20483;-49
2023/10/22 00:42:46;;;;;;;1.55;0.50;;;15.10;99.90;;;15.22;100.00;99540.13;5214593;28;20048;-49
2023/10/22 00:45:19;;;;;;;1.00;0.40;;;15.00;99.90;;;15.19;100.00;99527.00;5215066;28;20402;-49
2023/10/22 00:47:53;;;;;;;2.58;0.43;;;15.00;99.90;;;15.18;100.00;99533.13;5212889;28;20072;-47
2023/10/22 00:50:27;;;;;;;1.52;0.57;;;15.00;99.90;;;15.17;100.00;99523.50;5204461;28;20106;-48
2023/10/22 00:53:00;;;;;;;1.92;0.45;;;15.00;99.90;;;15.12;100.00;99518.25;5217980;28;20045;-47
2023/10/22 00:55:32;;;;;;;2.58;0.50;;;15.00;99.90;;;15.11;100.00;99526.16;5220855;28;20064;-49
2023/10/22 00:58:06;;;;;;;2.03;0.82;;;14.90;99.90;;;15.11;100.00;99532.28;5218822;28;20411;-47
2023/10/22 01:00:39;;;;;;;0.52;0.30;;;14.90;99.90;;;15.13;100.00;99529.66;5218804;28;20187;-48
2023/10/22 01:03:13;;;;;;;1.45;0.70;;;14.90;99.90;;;15.18;100.00;99530.50;5216302;28;20050;-49
2023/10/22 01:05:45;;;;;;;1.15;0.73;;;14.90;99.90;;;15.11;100.00;99523.53;5218411;28;20503;-47
2023/10/22 01:08:18;;;;;;;2.55;0.75;;;14.90;99.90;;;15.05;100.00;99527.03;5220341;28;20041;-48
2023/10/22 01:10:50;;;;;;;1.55;0.45;;;14.90;99.90;;;15.01;100.00;99520.06;5216543;28;20408;-48
2023/10/22 01:13:23;;;;;;;0.88;0.50;;;14.90;99.90;;;14.99;100.00;99536.69;5222371;28;20543;-48
2023/10/22 01:15:55;;;;;;;0.68;0.40;;;14.90;99.90;;;14.97;100.00;99533.19;5218312;28;20049;-48
2023/10/22 01:18:32;;;;;;;2.90;0.45;;;14.80;99.90;;;14.90;100.00;99535.84;5217561;28;20425;-49
2023/10/22 01:21:05;;;;;;;1.00;0.60;;;14.80;99.90;;;14.88;100.00;99540.22;5214968;28;20731;-49
2023/10/22 01:23:39;;;;;;;1.27;0.52;;;14.70;99.90;;;14.82;100.00;99535.00;5218852;28;20048;-48
2023/10/22 01:26:13;;;;;;;;;;;14.70;99.90;;;14.80;100.00;99547.25;5218888;28;20044;-48
2023/10/22 01:28:49;;;;;;;3.38;0.50;;;14.70;99.90;;;14.77;100.00;99544.63;5217594;28;20142;-48
2023/10/22 01:31:21;;;;;;;3.25;0.50;;;14.70;99.90;;;14.78;100.00;99553.34;5213412;28;20108;-48
2023/10/22 01:33:53;;;;;;;1.25;0.50;;;14.60;99.90;;;14.83;100.00;99548.97;5231188;28;20052;-48
2023/10/22 01:36:29;;;;;;;2.08;0.80;;;14.60;99.90;;;14.82;100.00;99555.97;5219330;28;20045;-48
2023/10/22 01:39:03;;;;;;;1.40;0.50;;;14.70;99.90;;;14.79;100.00;99553.34;5218417;28;20071;-48
2023/10/22 01:41:36;;;;;;;1.45;0.43;;;14.70;99.90;;;14.80;100.00;99559.47;5219728;28;20048;-48
2023/10/22 01:44:08;;;;;;;2.40;0.50;;;14.60;99.90;;;14.83;100.00;99562.97;5218222;28;20042;-47
2023/10/22 01:46:41;;;;;;;2.35;0.52;;;14.70;99.90;;;14.82;100.00;99553.34;5212293;28;20560;-48
2023/10/22 01:49:13;;;;;;;1.20;0.60;;;14.70;99.90;;;14.80;100.00;99556.84;5220137;28;20056;-48
2023/10/22 01:51:46;;;;;;;1.75;0.38;;;14.70;99.90;;;14.85;100.00;99555.09;5210604;28;20525;-48
2023/10/22 01:54:19;;;;;;;1.50;0.52;;;14.70;99.90;;;14.83;100.00;99562.97;5227152;28;20040;-48
2023/10/22 01:56:52;;;;;;;2.35;0.50;;;14.70;99.90;;;14.81;100.00;99562.09;5218200;28;20056;-48
2023/10/22 01:59:25;;;;;;;1.67;0.43;;;14.70;99.90;;;14.80;100.00;99567.34;5227951;28;20048;-49
2023/10/22 02:01:57;;;;;;;2.85;0.60;;;14.60;99.90;;;14.82;100.00;99566.47;5220331;28;20087;-49
2023/10/22 02:04:31;;;;;;;1.17;0.43;;;14.70;99.90;;;14.81;100.00;99569.97;5218702;28;20048;-48
2023/10/22 02:07:04;;;;;;;1.27;0.50;;;14.70;99.90;;;14.86;100.00;99573.44;5215650;28;20442;-48
2023/10/22 02:09:38;;;;;;;1.05;0.50;;;14.70;99.90;;;14.81;100.00;99561.25;5221764;28;20060;-48
2023/10/22 02:12:11;;;;;;;3.78;0.70;;;14.70;99.90;;;14.80;100.00;99573.47;5224211;28;20050;-48
2023/10/22 02:14:43;;;;;;;2.45;0.52;;;14.60;99.90;;;14.78;100.00;99584.84;5211338;28;20530;-48
2023/10/22 02:17:15;;;;;;;0.95;0.47;;;14.70;99.90;;;14.80;100.00;99583.06;5212650;28;20049;-48
2023/10/22 02:19:48;;;;;;;1.05;0.40;;;14.60;99.90;;;14.81;100.00;99579.59;5224775;28;20049;-47
2023/10/22 02:22:20;;;;;;;3.95;0.70;;;14.60;99.90;;;14.82;100.00;99576.09;5216379;28;20060;-48
2023/10/22 02:24:58;;;;;;;2.40;0.65;;;14.60;99.90;;;14.78;100.00;99580.47;5217381;28;20056;-48
2023/10/22 02:27:30;;;;;;;2.47;0.40;;;14.60;99.90;;;14.78;100.00;99593.56;5223104;28;20052;-48
2023/10/22 02:30:02;;;;;;;1.85;0.50;;;14.60;99.90;;;14.79;100.00;99586.56;5218928;28;20497;-48
2023/10/22 02:32:38;;;;;;;1.10;0.35;;;14.60;99.90;;;14.72;100.00;99593.59;5227974;28;20052;-48
2023/10/22 02:35:11;;;;;;;1.45;0.45;;;14.60;99.90;;;14.73;100.00;99603.19;5240166;28;20041;-49
2023/10/22 02:37:43;;;;;;;1.63;0.57;;;14.60;99.90;;;14.72;100.00;99598.81;5229477;28;20057;-49
2023/10/22 02:40:17;;;;;;;0.65;0.40;;;14.60;99.90;;;14.71;100.00;99604.09;5216537;28;20058;-48
2023/10/22 02:42:50;;;;;;;1.23;0.38;;;14.50;99.90;;;14.71;100.00;99607.56;5219516;28;20400;-49
2023/10/22 02:45:22;;;;;;;1.55;0.50;;;14.60;99.90;;;14.71;100.00;99609.31;5231535;28;20053;-49
2023/10/22 02:47:55;;;;;;;1.30;0.40;;;14.50;99.90;;;14.70;100.00;99608.44;5221145;28;20049;-48
2023/10/22 02:50:28;;;;;;;1.05;0.32;;;14.50;99.90;;;14.65;100.00;99612.81;5231176;28;20045;-48
2023/10/22 02:53:00;;;;;;;1.08;0.60;;;14.50;99.90;;;14.64;100.00;99605.84;5217641;28;20408;-48
2023/10/22 02:55:34;;;;;;;0.43;0.35;;;14.50;99.90;;;14.62;100.00;99626.81;5219382;28;20057;-48
2023/10/22 02:58:07;;;;;;;0.75;0.32;;;14.50;99.90;;;14.65;100.00;99618.94;5221590;28;20119;-48
2023/10/22 03:00:43;;;;;;;0.90;0.40;;;14.50;99.90;;;14.70;100.00;99621.56;5224238;28;20044;-48
2023/10/22 03:03:15;;;;;;;0.85;0.40;;;14.50;99.90;;;14.66;100.00;99619.81;5219688;28;20045;-49
2023/10/22 03:05:48;;;;;;;2.05;0.60;;;14.50;99.90;;;14.64;100.00;99624.19;5221631;28;20068;-47
2023/10/22 03:08:20;;;;;;;0.88;0.52;;;14.50;99.90;;;14.61;100.00;99630.31;5230829;28;20045;-49
2023/10/22 03:10:57;;;;;;;1.30;0.47;;;14.50;99.90;;;14.62;100.00;99620.72;5221421;28;20048;-48
2023/10/22 03:13:30;;;;;;;1.35;0.40;;;14.50;99.90;;;14.60;100.00;99641.66;5216925;28;20038;-48
2023/10/22 03:16:10;;;;;;;1.25;0.50;;;14.50;99.90;;;14.61;100.00;99639.94;5218791;28;20052;-49
2023/10/22 03:18:48;;;;;;;1.23;0.50;;;14.50;99.90;;;14.61;100.00;99639.94;5224357;28;20045;-49
2023/10/22 03:21:24;;;;;;;0.75;0.30;;;14.50;99.90;;;14.59;100.00;99645.16;5217223;28;20680;-49
2023/10/22 03:23:56;;;;;;;0.80;0.40;;;14.40;99.90;;;14.61;100.00;99645.19;5219062;28;20538;-48
2023/10/22 03:26:30;;;;;;;0.57;0.50;;;14.50;99.90;;;14.60;100.00;99646.03;5221114;28;20068;-49
2023/10/22 03:29:06;;;;;;;0.85;0.32;;;14.40;99.90;;;14.60;100.00;99646.03;5225150;28;20033;-47
2023/10/22 03:31:39;;;;;;;0.90;0.40;;;14.50;99.90;;;14.58;100.00;99650.41;5221759;28;20057;-49
2023/10/22 03:34:11;;;;;;;2.33;0.60;;;14.50;99.90;;;14.56;100.00;99650.41;5223282;28;20037;-48
2023/10/22 03:36:44;;;;;;;0.38;0.32;;;14.40;99.90;;;14.57;100.00;99653.91;5220190;28;20046;-48
2023/10/22 03:39:17;;;;;;;0.40;0.40;;;14.40;99.90;;;14.54;100.00;99656.50;5212607;28;20507;-48
2023/10/22 03:41:51;;;;;;;0.82;0.43;;;14.40;99.90;;;14.53;100.00;99662.63;5219669;28;20057;-48
2023/10/22 03:44:23;;;;;;;1.02;0.35;;;14.40;99.90;;;14.53;100.00;99662.63;5219203;28;20052;-49
2023/10/22 03:46:57;;;;;;;3.08;0.57;;;14.40;99.90;;;14.55;100.00;99666.16;5213751;28;20140;-49
2023/10/22 03:49:30;;;;;;;0.38;0.30;;;14.40;99.90;;;14.52;100.00;99676.63;5219287;28;20455;-49
2023/10/22 03:52:03;;;;;;;0.80;0.32;;;14.40;99.90;;;14.48;100.00;99677.53;5212846;28;20128;-49
2023/10/22 03:54:35;;;;;;;0.40;0.40;;;14.40;99.90;;;14.46;100.00;99684.44;5221804;28;20041;-48
2023/10/22 03:57:12;;;;;;;1.85;0.50;;;14.40;99.90;;;14.49;100.00;99690.63;5224643;28;20060;-48
2023/10/22 03:59:44;;;;;;;0.35;0.20;;;14.40;99.90;;;14.47;100.00;99688.84;5216458;28;20066;-48
2023/10/22 04:02:17;;;;;;;0.40;0.32;;;14.30;99.90;;;14.45;100.00;99690.56;5222259;28;20068;-49
2023/10/22 04:04:49;;;;;;;0.40;0.30;;;14.30;99.90;;;14.43;100.00;99692.31;5207641;28;20408;-48
2023/10/22 04:07:21;;;;;;;0.20;0.20;;;14.30;99.90;;;14.42;100.00;99696.69;5216626;28;20057;-48
2023/10/22 04:09:54;;;;;;;0.80;0.40;;;14.30;99.90;;;14.40;100.00;99701.03;5208978;28;20077;-48
2023/10/22 04:12:27;;;;;;;0.40;0.40;;;14.30;99.90;;;14.38;100.00;99701.06;5218381;28;20045;-48
2023/10/22 04:15:00;;;;;;;0.77;0.50;;;14.30;99.90;;;14.35;100.00;99701.06;5219097;28;20395;-48
2023/10/22 04:17:32;;;;;;;0.35;0.32;;;14.20;99.90;;;14.32;100.00;99706.28;5215262;28;20057;-48
2023/10/22 04:20:06;;;;;;;1.55;0.50;;;14.20;99.90;;;14.32;100.00;99711.53;5211022;28;20131;-48
2023/10/22 04:22:39;;;;;;;0.43;0.22;;;14.20;99.90;;;14.28;100.00;99709.78;5210686;28;20549;-48
2023/10/22 04:25:14;;;;;;;2.17;0.40;;;14.20;99.90;;;14.29;100.00;99708.03;5213704;28;20500;-48
2023/10/22 04:27:49;;;;;;;0.52;0.38;;;14.20;99.90;;;14.27;100.00;99717.63;5217949;28;20053;-49
2023/10/22 04:30:22;;;;;;;0.60;0.35;;;14.20;99.90;;;14.25;100.00;99717.63;5214904;28;20056;-48
2023/10/22 04:32:54;;;;;;;0.43;0.35;;;14.10;99.90;;;14.25;100.00;99720.25;5219357;28;20055;-49
2023/10/22 04:35:26;;;;;;;0.40;0.40;;;14.10;99.90;;;14.24;100.00;99723.75;5219173;28;20044;-48
2023/10/22 04:37:59;;;;;;;0.38;0.22;;;14.10;99.90;;;14.24;100.00;99728.97;5220482;28;20543;-49
2023/10/22 04:40:33;;;;;;;1.52;0.40;;;14.10;99.90;;;14.23;100.00;99737.72;5211031;28;20052;-49
2023/10/22 04:43:07;;;;;;;2.13;0.20;;;14.10;99.90;;;14.21;100.00;99728.06;5213719;28;20060;-48
2023/10/22 04:45:46;;;;;;;1.05;0.50;;;14.10;99.90;;;14.21;100.00;99739.44;5220229;28;20052;-48
2023/10/22 04:48:19;;;;;;;1.77;0.40;;;14.10;99.90;;;14.20;100.00;99735.06;5214923;28;20068;-48
2023/10/22 04:50:55;;;;;;;0.20;0.20;;;14.10;99.90;;;14.20;100.00;99745.56;5214423;28;20271;-48
2023/10/22 04:53:27;;;;;;;0.73;0.20;;;14.10;99.90;;;14.18;100.00;99751.66;5219586;28;20430;-49
2023/10/22 04:56:00;;;;;;;0.60;0.32;;;14.00;99.90;;;14.18;100.00;99755.16;5220204;28;20056;-49
2023/10/22 04:58:35;;;;;;;0.40;0.30;;;14.10;99.90;;;14.19;100.00;99761.28;5216036;28;20049;-49
2023/10/22 05:01:07;;;;;;;0.40;0.30;;;14.00;99.90;;;14.18;100.00;99760.41;5220941;28;20515;-49
2023/10/22 05:03:40;;;;;;;0.68;0.50;;;14.10;99.90;;;14.18;100.00;99770.00;5212994;28;20198;-49
2023/10/22 05:06:13;;;;;;;0.98;0.47;;;14.00;99.90;;;14.19;100.00;99766.53;5215848;28;20041;-48
2023/10/22 05:08:45;;;;;;;0.65;0.22;;;14.00;99.90;;;14.20;100.00;99778.75;5206865;28;20052;-49
2023/10/22 05:11:18;;;;;;;0.68;0.25;;;14.10;99.90;;;14.17;100.00;99781.38;5214003;28;20575;-48
2023/10/22 05:13:52;;;;;;;0.80;0.55;;;14.00;99.90;;;14.17;100.00;99779.63;5214710;28;20126;-48
2023/10/22 05:16:24;;;;;;;0.60;0.47;;;14.00;99.90;;;14.17;100.00;99779.63;5207927;28;20053;-48
2023/10/22 05:19:00;;;;;;;2.47;0.47;;;14.00;99.90;;;14.17;100.00;99777.00;5226323;28;20041;-49
2023/10/22 05:21:32;;;;;;;0.40;0.30;;;14.00;99.90;;;14.17;100.00;99786.63;5212930;28;20551;-48
2023/10/22 05:24:05;;;;;;;0.85;0.43;;;14.00;99.90;;;14.17;100.00;99786.63;5216367;28;20500;-48
2023/10/22 05:26:38;;;;;;;0.38;0.30;;;14.00;99.90;;;14.18;100.00;99789.22;5216635;28;20060;-48
2023/10/22 05:29:15;;;;;;;0.98;0.25;;;14.00;99.90;;;14.17;100.00;99800.59;5216733;28;20038;-48
2023/10/22 05:31:47;;;;;;;0.63;0.40;;;14.00;99.90;;;14.16;100.00;99803.22;5216428;28;20046;-49
2023/10/22 05:34:19;;;;;;;0.57;0.40;;;14.00;99.90;;;14.16;100.00;99809.31;5224902;28;20569;-47
2023/10/22 05:36:52;;;;;;;0.25;0.25;;;14.00;99.90;;;14.17;100.00;99816.31;5218047;28;20045;-47
2023/10/22 05:39:24;;;;;;;0.38;0.38;;;14.00;99.90;;;14.17;100.00;99820.69;5217955;28;20037;-47
2023/10/22 05:41:56;;;;;;;0.35;0.30;;;14.00;99.90;;;14.17;100.00;99823.31;5215105;28;20057;-48
2023/10/22 05:44:30;;;;;;;0.35;0.30;;;14.00;99.90;;;14.18;100.00;99832.91;5216071;28;20083;-48
2023/10/22 05:47:07;;;;;;;0.45;0.22;;;14.00;99.90;;;14.17;100.00;99834.66;5208678;28;20056;-48
2023/10/22 05:49:39;;;;;;;0.60;0.32;;;14.00;99.90;;;14.18;100.00;99843.41;5220498;28;20056;-49
2023/10/22 05:52:11;;;;;;;0.32;0.32;;;14.00;99.90;;;14.17;100.00;99842.53;5217264;28;20404;-48
2023/10/22 05:54:44;;;;;;;0.45;0.25;;;14.00;99.90;;;14.16;100.00;99851.25;5210142;28;20045;-47
2023/10/22 05:57:17;;;;;;;0.60;0.30;;;14.00;99.90;;;14.16;100.00;99846.03;5211600;28;20053;-48
2023/10/22 05:59:50;;;;;;;0.40;0.30;;;14.00;99.90;;;14.17;100.00;99853.00;5208581;28;20050;-48
2023/10/22 06:02:23;;;;;;;0.52;0.20;;;14.00;99.90;;;14.18;100.00;99853.88;5219028;28;20041;-48
2023/10/22 06:04:55;;;;;;;0.30;0.22;;;14.00;99.90;;;14.19;100.00;99861.75;5209302;28;20045;-48
2023/10/22 06:07:28;;;;;;;0.60;0.40;;;14.00;99.90;;;14.20;100.00;99862.63;5224947;28;20052;-48
2023/10/22 06:10:00;;;;;;;0.50;0.30;;;14.00;99.90;;;14.20;100.00;99863.50;5222392;28;20042;-48
2023/10/22 06:12:32;;;;;;;0.43;0.43;;;14.00;99.90;;;14.21;100.00;99873.09;5229142;28;20063;-47
2023/10/22 06:15:10;;;;;;;0.35;0.35;;;14.00;99.90;;;14.21;100.00;99880.97;5222175;28;20056;-49
2023/10/22 06:17:44;;;;;;;0.65;0.45;;;14.00;99.90;;;14.22;100.00;99879.25;5231897;28;20049;-47
2023/10/22 06:20:16;;;;;;;0.47;0.32;;;14.00;99.90;;;14.22;100.00;99877.50;5217080;28;20154;-48
2023/10/22 06:22:48;;;;;;;0.30;0.30;;;14.10;99.90;;;14.22;100.00;99880.13;5220808;28;20374;-48
2023/10/22 06:25:21;;;;;;;0.47;0.20;;;14.10;99.90;;;14.22;100.00;99885.38;5224217;28;20404;-48
2023/10/22 06:27:55;;;;;;;0.22;0.20;;;14.00;99.90;;;14.22;100.00;99897.59;5226829;28;20403;-48
2023/10/22 06:30:30;;;;;;;0.30;0.30;;;14.00;99.90;;;14.22;100.00;99893.22;5224109;28;20063;-48
2023/10/22 06:33:05;;;;;;;0.20;0.20;;;14.10;99.90;;;14.21;100.00;99891.44;5218285;28;20045;-49
2023/10/22 06:35:38;;;;;;;0.35;0.28;;;14.00;99.90;;;14.23;100.00;99900.22;5222962;28;20543;-48
2023/10/22 06:38:10;;;;;;;0.40;0.22;;;14.10;99.90;;;14.25;100.00;99894.97;5216978;28;20055;-48
2023/10/22 06:40:43;;;;;;;0.30;0.30;;;14.10;99.90;;;14.26;100.00;99909.84;5227086;28;20106;-47
2023/10/22 06:43:15;;;;;;;0.40;0.30;;;14.10;99.90;;;14.26;100.00;99900.22;5221127;28;20040;-47
2023/10/22 06:45:49;;;;;;;0.30;0.30;;;14.10;99.90;;;14.26;100.00;99909.84;5217866;28;20759;-48
2023/10/22 06:48:21;;;;;;;0.50;0.22;;;14.10;99.90;;;14.26;100.00;99905.47;5215205;28;20051;-48
2023/10/22 06:50:54;;;;;;;0.40;0.40;;;14.10;99.90;;;14.27;100.00;99922.06;5222156;28;20049;-49
2023/10/22 06:53:26;;;;;;;0.38;0.38;;;14.10;99.90;;;14.28;100.00;99926.44;5225118;28;20060;-48
2023/10/22 06:55:58;;;;;;;0.20;0.20;;;14.10;99.90;;;14.28;100.00;99923.81;5220213;28;20045;-48
2023/10/22 06:58:31;;;;;;;0.25;0.20;;;14.10;99.90;;;14.30;100.00;99941.31;5226690;28;20048;-48
2023/10/22 07:01:10;;;;;;;0.22;0.22;;;14.10;99.90;;;14.31;100.00;99937.84;5221229;28;20060;-48
2023/10/22 07:03:45;;;;;;;0.40;0.30;;;14.10;99.90;;;14.31;100.00;99943.06;5222523;28;20045;-48
2023/10/22 07:06:17;;;;;;;0.98;0.22;;;14.10;99.90;;;14.33;100.00;99959.69;5218674;28;20377;-48
2023/10/22 07:08:50;;;;;;;3.47;3.22;;;14.20;99.90;;;14.34;100.00;99956.22;5222497;28;20423;-48
2023/10/22 07:11:25;;;;;;;2.90;2.60;;;14.10;99.90;;;14.34;100.00;99966.72;5220228;28;20053;-48
2023/10/22 07:13:57;;;;;;;2.90;2.70;;;14.20;99.90;;;14.35;100.00;99959.72;5222802;28;20139;-48
2023/10/22 07:16:31;;;;;;;2.47;2.10;;;14.20;99.90;;;14.35;100.00;99976.31;5224709;28;20048;-48
2023/10/22 07:19:04;;;;;;;2.60;2.40;;;14.20;99.90;;;14.33;100.00;99975.41;5235544;28;20065;-48
2023/10/22 07:21:36;;;;;;;2.13;1.92;;;14.20;99.90;;;14.31;100.00;99982.41;5221008;28;20060;-47
2023/10/22 07:24:09;;;;;;;1.77;1.52;;;14.20;99.90;;;14.30;100.00;99982.41;5235822;28;20045;-47
2023/10/22 07:26:42;;;;;;;1.17;1.08;;;14.10;99.90;;;14.26;100.00;99984.09;5223107;28;20056;-47
2023/10/22 07:29:17;;;;;;;0.95;0.85;;;14.10;99.90;;;14.25;100.00;99987.59;5224664;28;20064;-47
2023/10/22 07:31:51;;;;;;;1.00;0.90;;;14.10;99.90;;;14.23;100.00;99984.09;5217943;28;20065;-47
2023/10/22 07:34:24;;;;;;;0.73;0.73;;;14.10;99.90;;;14.21;100.00;99987.56;5215728;28;20055;-47
2023/10/22 07:36:56;;;;;;;0.45;0.45;;;14.10;99.90;;;14.19;100.00;99991.91;5222655;28;20516;-46
2023/10/22 07:39:29;;;;;;;1.15;0.88;;;14.10;99.90;;;14.14;100.00;99999.72;5221227;28;20083;-45
2023/10/22 07:42:01;;;;;;;0.65;0.50;;;14.00;99.90;;;14.30;100.00;99996.38;5222917;28;20530;-46
2023/10/22 07:44:33;;;;;;;0.60;0.43;;;14.20;99.90;;;14.32;100.00;100001.63;5226358;28;20519;-47
2023/10/22 07:47:07;;;;;;;0.50;0.47;;;14.20;99.90;;;14.28;100.00;100000.75;5224019;28;20048;-46
2023/10/22 07:49:39;;;;;;;0.50;0.50;;;14.20;99.90;;;14.23;100.00;100004.19;5226950;28;20132;-46
2023/10/22 07:52:12;;;;;;;0.75;0.50;;;14.10;99.90;;;14.17;100.00;100014.63;5221969;28;20057;-47
2023/10/22 07:54:47;;;;;;;0.70;0.45;;;14.10;99.90;;;14.13;100.00;100014.59;5221108;28;20033;-47
2023/10/22 07:57:19;;;;;;;0.60;0.60;;;14.00;99.90;;;14.11;100.00;100021.56;5219089;28;20045;-47
2023/10/22 07:59:52;;;;;;;0.50;0.43;;;14.00;99.90;;;14.07;100.00;100026.75;5228028;28;20048;-46
2023/10/22 08:02:26;;;;;;;0.40;0.40;;;14.00;99.90;;;14.04;100.00;100018.88;5216072;28;20497;-46
2023/10/22 08:04:58;;;;;;;0.93;0.35;;;13.90;99.90;;;14.01;100.00;100030.19;5223899;28;20045;-46
2023/10/22 08:07:31;;;;;;;1.25;0.50;;;13.90;99.90;;;14.00;100.00;100033.69;5219545;28;20056;-47
2023/10/22 08:10:03;;;;;;;1.02;0.52;;;13.90;99.90;;;13.96;100.00;100031.94;5213801;28;20505;-48
2023/10/22 08:12:35;;;;;;;1.10;0.77;;;13.80;99.90;;;13.97;100.00;100048.53;5222351;28;20171;-46
2023/10/22 08:15:09;;;;;;;1.52;0.70;;;13.80;99.90;;;13.96;100.00;100042.41;5223263;28;20052;-45
2023/10/22 08:17:43;;;;;;;1.10;0.70;;;13.80;99.90;;;14.00;100.00;100049.41;5216295;28;20068;-46
2023/10/22 08:20:16;;;;;;;1.48;0.60;;;13.80;99.90;;;14.03;100.00;100053.81;5235858;28;20045;-50
2023/10/22 08:22:48;;;;;;;1.88;0.70;;;13.90;99.90;;;14.10;100.00;100051.25;5228876;28;20538;-48
2023/10/22 08:25:20;;;;;;;2.17;0.60;;;14.00;99.90;;;14.08;100.00;100053.00;5221639;28;20037;-48
2023/10/22 08:27:53;;;;;;;0.65;0.63;;;13.90;99.90;;;14.06;100.00;100059.06;5218191;28;20041;-47
2023/10/22 08:30:25;;;;;;;2.78;0.70;;;13.90;99.90;;;14.08;100.00;100058.25;5220406;28;20045;-48
2023/10/22 08:32:59;;;;;;;2.47;0.75;;;13.90;99.90;;;14.16;100.00;100066.16;5217426;28;20053;-47
2023/10/22 08:35:32;;;;;;;1.90;0.80;;;14.00;99.90;;;14.13;100.00;100072.25;5221720;28;20044;-48
2023/10/22 08:38:05;;;;;;;1.77;0.63;;;14.00;99.90;;;14.10;100.00;100066.13;5217982;28;20520;-47
2023/10/22 08:40:41;;;;;;;1.42;0.50;;;13.90;99.90;;;14.07;100.00;100076.56;5215074;28;20447;-47
2023/10/22 08:43:17;;;;;;;0.63;0.52;;;13.90;99.90;;;14.04;100.00;100089.63;5220880;28;20524;-47
2023/10/22 08:45:50;;;;;;;0.50;0.50;;;13.90;99.90;;;14.05;100.00;100087.03;5216468;28;20550;-47
2023/10/22 08:48:26;;;;;;;0.45;0.45;;;13.90;99.90;;;14.06;100.00;100080.91;5219638;28;20037;-47
2023/10/22 08:51:01;;;;;;;1.08;0.63;;;13.90;99.90;;;14.05;100.00;100099.25;5222600;28;20049;-46
2023/10/22 08:53:34;;;;;;;1.30;0.75;;;13.90;99.90;;;14.07;100.00;100102.75;5219450;28;20053;-47
2023/10/22 08:56:07;;;;;;;0.93;0.77;;;13.90;99.90;;;14.08;100.00;100094.03;5218909;28;20412;-47
2023/10/22 08:58:39;;;;;;;1.60;0.90;;;13.90;99.90;;;14.07;100.00;100105.38;5219527;28;20083;-47
2023/10/22 09:01:11;;;;;;;1.50;0.63;;;13.90;99.90;;;14.06;100.00;100101.00;5225006;28;20055;-47
2023/10/22 09:03:46;;;;;;;0.35;0.35;;;13.90;99.90;;;14.11;100.00;100101.94;5215419;28;20459;-46
2023/10/22 09:06:19;;;;;;;1.80;0.70;;;14.00;99.90;;;14.12;100.00;100122.91;5212933;28;20599;-46
2023/10/22 09:08:52;;;;;;;0.52;0.50;;;13.90;99.90;;;14.09;100.00;100109.78;5211542;28;20098;-46
2023/10/22 09:11:24;;;;;;;2.13;1.08;;;14.00;99.90;;;14.05;100.00;100105.38;5217430;28;20132;-47
2023/10/22 09:13:57;;;;;;;1.80;0.85;;;14.00;99.90;;;14.03;100.00;100114.97;5224087;28;20045;-46
2023/10/22 09:16:31;;;;;;;1.20;0.82;;;13.90;99.90;;;14.02;100.00;100125.44;5221094;28;20508;-46
2023/10/22 09:19:04;;;;;;;1.75;1.00;;;13.90;99.90;;;14.03;100.00;100120.22;5220990;28;20072;-47
2023/10/22 09:21:44;;;;;;;1.27;0.93;;;13.90;99.90;;;14.03;100.00;100132.44;5214817;28;20037;-46
2023/10/22 09:24:17;;;;;;;1.70;1.23;;;13.90;99.90;;;14.04;100.00;100119.34;5214939;28;20053;-46
2023/10/22 09:26:49;;;;;;;2.15;1.10;;;13.90;99.90;;;14.04;100.00;100128.94;5221356;28;20053;-46
2023/10/22 09:29:22;;;;;;;1.65;1.15;;;13.90;99.90;;;14.04;100.00;100136.81;5222918;28;20595;-46
2023/10/22 09:31:56;;;;;;;3.67;1.27;;;13.90;99.90;;;14.06;100.00;100132.44;5213698;28;20048;-46
2023/10/22 09:34:32;;;;;;;1.48;1.15;;;13.90;99.90;;;14.05;100.00;100136.81;5217458;28;20095;-46
2023/10/22 09:37:04;;;;;;;1.48;1.15;;;13.90;99.90;;;14.04;100.00;100140.31;5213626;28;20427;-46
2023/10/22 09:39:38;;;;;;;1.08;0.98;;;13.90;99.90;;;14.03;100.00;100138.56;5220857;28;20060;-46
2023/10/22 09:42:12;;;;;;;1.05;0.93;;;13.90;99.90;;;14.01;100.00;100140.25;5218332;28;20045;-46
2023/10/22 09:44:45;;;;;;;3.72;2.88;;;13.80;99.90;;;13.99;100.00;100142.00;5218240;28;20068;-46
2023/10/22 09:47:21;;;;;;;2.60;2.30;;;13.80;99.90;;;13.99;100.00;100147.22;5219808;28;20045;-46
2023/10/22 09:50:04;;;;;;;1.48;1.13;;;13.80;99.90;;;13.98;100.00;100153.34;5219572;28;20063;-45
2023/10/22 09:52:41;;;;;;;0.95;0.93;;;13.90;99.90;;;13.97;100.00;100148.09;5219809;28;20106;-45
2023/10/22 09:55:14;;;;;;;1.67;1.02;;;13.90;99.90;;;13.99;100.00;100156.84;5221503;28;20072;-45
2023/10/22 09:57:47;;;;;;;1.40;1.00;;;13.90;99.90;;;14.06;100.00;100145.56;5222508;28;20048;-46
2023/10/22 10:00:21;;;;;;;1.83;0.80;;;13.90;99.90;;;14.13;100.00;100150.88;5224684;28;20458;-46
2023/10/22 10:02:54;;;;;;;1.55;0.60;;;14.00;99.90;;;14.18;100.00;100143.06;5218744;28;20060;-47
2023/10/22 10:05:28;;;;;;;0.52;0.50;;;14.00;99.90;;;14.23;100.00;100157.09;5221918;28;20048;-47
2023/10/22 10:08:01;;;;;;;1.00;0.75;;;14.10;99.90;;;14.29;100.00;100151.03;5224510;28;20557;-46
2023/10/22 10:10:34;;;;;;;0.50;0.50;;;14.20;99.90;;;14.36;100.00;100156.34;5220784;28;20052;-47
2023/10/22 10:13:06;;;;;;;0.75;0.60;;;14.20;99.90;;;14.38;100.00;100159.84;5220313;28;20432;-47
2023/10/22 10:15:39;;;;;;;1.10;0.65;;;14.30;99.90;;;14.43;100.00;100151.16;5223534;28;20128;-47
2023/10/22 10:18:11;;;;;;;0.50;0.50;;;14.30;99.90;;;14.46;100.00;100144.22;5223818;28;20052;-47
2023/10/22 10:20:45;;;;;;;1.77;0.93;;;14.30;99.90;;;14.51;100.00;100160.88;5220618;28;20060;-47
2023/10/22 10:23:20;;;;;;;0.75;0.43;;;14.40;99.90;;;14.46;100.00;100169.53;5219088;28;20047;-47
2023/10/22 10:25:53;;;;;;;1.13;0.52;;;14.30;99.90;;;14.43;100.00;100173.00;5217872;28;20046;-47
2023/10/22 10:28:42;;;;;;;0.60;0.60;;;14.30;99.90;;;14.39;100.00;100173.84;5224677;28;20053;-47
2023/10/22 10:31:30;;;;;;;0.68;0.68;;;14.30;99.90;;;14.36;100.00;100179.06;5221205;28;20057;-47
2023/10/22 10:34:03;;;;;;;0.65;0.63;;;14.30;99.90;;;14.35;100.00;100183.44;5220872;28;20048;-47
2023/10/22 10:36:38;;;;;;;0.75;0.75;;;14.30;99.90;;;14.32;100.00;100178.16;5220263;28;20061;-46